Time;durP1;ratioP1;P1;durP2;ratioP2;P2;SDS_P1;SDS_P2;PMS_P1;PMS_P2;Temp;Humidity;BMP_temperature;BMP_pressure;BME280_temperature;BME280_humidity;BME280_pressure;Samples;Min_cycle;Max_cycle;Signal;HPM_P1;HPM_P2
2021/06/13 00:01:34;;;;;;;15.83;14.73;;;24.90;93.20;;;;;;3596847;40;20468;-61
2021/06/13 00:04:01;;;;;;;16.83;15.73;;;24.90;93.20;;;;;;3596477;40;20481;-61
2021/06/13 00:06:29;;;;;;;16.57;15.57;;;24.90;93.20;;;;;;3595668;40;20841;-61
2021/06/13 00:08:56;;;;;;;17.83;16.50;;;24.90;93.20;;;;;;3596105;40;20536;-61
2021/06/13 00:11:23;;;;;;;17.20;15.80;;;24.90;93.20;;;;;;3595671;40;20481;-61
2021/06/13 00:13:51;;;;;;;17.13;16.03;;;24.90;93.20;;;;;;3595440;40;20469;-61
2021/06/13 00:16:18;;;;;;;16.50;15.30;;;24.90;93.20;;;;;;3595692;40;20570;-62
2021/06/13 00:18:46;;;;;;;15.20;14.30;;;24.90;93.20;;;;;;3595226;40;20558;-60
2021/06/13 00:21:13;;;;;;;15.67;14.70;;;24.90;93.20;;;;;;3596514;40;20484;-61
2021/06/13 00:23:43;;;;;;;15.30;14.40;;;24.90;93.30;;;;;;3596164;40;20566;-61
2021/06/13 00:26:10;;;;;;;14.80;14.00;;;24.90;93.20;;;;;;3596214;40;20492;-61
2021/06/13 00:28:37;;;;;;;16.70;15.43;;;24.90;93.20;;;;;;3596064;40;20488;-61
2021/06/13 00:31:04;;;;;;;16.17;15.17;;;24.80;93.20;;;;;;3596169;40;20489;-61
2021/06/13 00:33:31;;;;;;;15.80;14.60;;;24.90;93.20;;;;;;3596385;40;20669;-61
2021/06/13 00:35:58;;;;;;;15.60;14.70;;;24.90;93.20;;;;;;3596392;40;20562;-60
2021/06/13 00:38:25;;;;;;;15.17;14.27;;;24.90;93.20;;;;;;3596443;40;20518;-61
2021/06/13 00:40:53;;;;;;;15.57;14.47;;;24.90;93.20;;;;;;3596573;40;20506;-61
2021/06/13 00:43:22;;;;;;;15.37;14.37;;;24.90;93.20;;;;;;3596293;39;20687;-61
2021/06/13 00:45:49;;;;;;;15.17;14.07;;;24.90;93.20;;;;;;3595198;40;20875;-61
2021/06/13 00:48:16;;;;;;;15.90;14.90;;;24.90;93.20;;;;;;3595463;40;20477;-61
2021/06/13 00:50:44;;;;;;;15.80;14.40;;;24.90;93.10;;;;;;3595943;40;20481;-61
2021/06/13 00:53:12;;;;;;;15.60;14.60;;;24.90;93.10;;;;;;3595106;40;20494;-61
2021/06/13 00:55:45;;;;;;;14.57;13.77;;;24.90;93.10;;;;;;3595595;40;21077;-61
2021/06/13 00:58:13;;;;;;;16.60;15.43;;;24.80;93.10;;;;;;3596510;40;20481;-61
2021/06/13 01:00:40;;;;;;;16.40;15.30;;;24.80;93.10;;;;;;3595587;40;21067;-61
2021/06/13 01:03:07;;;;;;;15.03;14.13;;;24.90;93.10;;;;;;3595023;40;20874;-61
2021/06/13 01:05:34;;;;;;;15.30;14.40;;;24.80;93.00;;;;;;3596687;40;20833;-61
2021/06/13 01:08:09;;;;;;;15.53;14.53;;;24.90;93.10;;;;;;3596124;40;20550;-60
2021/06/13 01:10:48;;;;;;;15.40;14.30;;;24.90;93.10;;;;;;3586218;40;20799;-61
2021/06/13 01:13:21;;;;;;;15.73;14.73;;;24.90;93.10;;;;;;3595927;40;20577;-61
2021/06/13 01:15:59;;;;;;;16.00;14.90;;;24.80;93.00;;;;;;3595929;40;21113;-61
2021/06/13 01:18:31;;;;;;;15.53;14.53;;;24.90;93.00;;;;;;3595047;40;20475;-61
2021/06/13 01:21:06;;;;;;;15.73;14.83;;;24.90;93.00;;;;;;3596361;40;20484;-60
2021/06/13 01:24:13;;;;;;;15.30;14.40;;;24.90;93.00;;;;;;3595813;40;20469;-61
2021/06/13 01:27:02;;;;;;;15.40;14.30;;;24.90;93.00;;;;;;3586910;40;20488;-62
2021/06/13 01:29:33;;;;;;;15.30;14.40;;;24.90;93.00;;;;;;3596321;40;20951;-61
2021/06/13 01:32:04;;;;;;;15.80;14.80;;;24.80;92.90;;;;;;3586703;40;20492;-61
2021/06/13 01:34:35;;;;;;;14.87;13.97;;;24.90;92.90;;;;;;3595006;40;20565;-61
2021/06/13 01:37:08;;;;;;;15.30;14.40;;;24.80;92.90;;;;;;3586910;40;20480;-61
2021/06/13 01:39:39;;;;;;;14.63;13.73;;;24.90;92.90;;;;;;3596241;40;20480;-62
2021/06/13 01:42:11;;;;;;;14.43;13.53;;;24.80;92.90;;;;;;3586599;40;20707;-61
2021/06/13 01:44:46;;;;;;;15.87;14.87;;;24.80;92.80;;;;;;3595308;40;20493;-61
2021/06/13 01:47:19;;;;;;;15.40;14.50;;;24.80;92.80;;;;;;3594158;40;21110;-61
2021/06/13 01:49:47;;;;;;;14.07;13.17;;;24.90;92.90;;;;;;3594928;40;20875;-61
2021/06/13 01:52:14;;;;;;;14.53;13.63;;;24.80;92.80;;;;;;3595387;40;20477;-61
2021/06/13 01:54:43;;;;;;;16.13;14.93;;;24.80;92.80;;;;;;3596156;39;20482;-61
2021/06/13 01:57:10;;;;;;;16.43;15.07;;;24.90;92.90;;;;;;3597502;40;20481;-60
2021/06/13 01:59:56;;;;;;;16.03;14.97;;;24.80;92.80;;;;;;3597637;40;20477;-61
2021/06/13 02:02:24;;;;;;;15.50;14.40;;;24.80;92.90;;;;;;3597275;40;21087;-61
2021/06/13 02:04:51;;;;;;;15.50;14.57;;;24.80;92.90;;;;;;3595524;40;20484;-61
2021/06/13 02:07:19;;;;;;;15.60;14.70;;;24.80;92.90;;;;;;3597927;40;20471;-61
2021/06/13 02:09:47;;;;;;;16.13;15.13;;;24.80;92.80;;;;;;3597772;40;21028;-61
2021/06/13 02:12:18;;;;;;;15.60;14.60;;;24.80;92.80;;;;;;3596702;40;20554;-60
2021/06/13 02:14:57;;;;;;;16.93;15.83;;;24.80;92.80;;;;;;3596169;40;20565;-61
2021/06/13 02:17:34;;;;;;;15.87;14.83;;;24.80;92.80;;;;;;3597067;40;21069;-60
2021/06/13 02:20:05;;;;;;;15.70;14.70;;;24.80;92.70;;;;;;3582332;40;20487;-61
2021/06/13 02:22:35;;;;;;;15.40;14.40;;;24.80;92.70;;;;;;3577897;40;20513;-60
2021/06/13 02:25:03;;;;;;;16.63;15.43;;;24.80;92.70;;;;;;3576417;40;20759;-61
2021/06/13 02:27:32;;;;;;;14.70;13.90;;;24.80;92.70;;;;;;3585651;40;21075;-61
2021/06/13 02:30:05;;;;;;;16.07;14.87;;;24.80;92.70;;;;;;3577902;40;20487;-61
2021/06/13 02:32:35;;;;;;;15.00;14.20;;;24.80;92.60;;;;;;3584856;40;20491;-61
2021/06/13 02:35:04;;;;;;;16.47;15.47;;;24.80;92.90;;;;;;3577811;40;20470;-60
2021/06/13 02:37:40;;;;;;;15.70;14.70;;;24.80;92.50;;;;;;3584400;40;20572;-61
2021/06/13 02:40:12;;;;;;;16.17;15.07;;;24.80;92.50;;;;;;3576107;40;20536;-61
2021/06/13 02:42:39;;;;;;;16.17;14.83;;;24.80;92.50;;;;;;3577636;40;20497;-61
2021/06/13 02:45:12;;;;;;;16.23;15.13;;;24.80;92.50;;;;;;3576784;40;20555;-60
2021/06/13 02:47:41;;;;;;;16.37;15.30;;;24.80;92.50;;;;;;3575600;40;20560;-61
2021/06/13 02:50:11;;;;;;;15.40;14.50;;;24.80;92.50;;;;;;3576253;40;20523;-61
2021/06/13 02:52:44;;;;;;;16.17;15.07;;;24.80;92.50;;;;;;3576285;40;20478;-61
2021/06/13 02:55:15;;;;;;;16.60;15.43;;;24.80;92.50;;;;;;3576079;40;20940;-61
2021/06/13 02:57:48;;;;;;;17.57;16.57;;;24.80;92.50;;;;;;3576134;40;20514;-61
2021/06/13 03:00:18;;;;;;;16.70;15.70;;;24.80;92.40;;;;;;3576885;40;20806;-60
2021/06/13 03:02:52;;;;;;;16.93;15.83;;;24.80;92.40;;;;;;3583974;40;20475;-61
2021/06/13 03:05:22;;;;;;;15.90;15.10;;;24.80;92.40;;;;;;3574898;40;20515;-61
2021/06/13 03:07:51;;;;;;;16.23;15.30;;;24.80;92.30;;;;;;3577278;40;20488;-61
2021/06/13 03:10:21;;;;;;;16.33;15.40;;;24.80;92.30;;;;;;3577065;40;20483;-61
2021/06/13 03:12:49;;;;;;;17.70;16.60;;;24.80;92.30;;;;;;3575982;40;20499;-61
2021/06/13 03:15:18;;;;;;;17.70;16.50;;;24.80;92.30;;;;;;3575358;40;20477;-61
2021/06/13 03:17:45;;;;;;;18.23;17.17;;;24.80;92.30;;;;;;3576954;40;20510;-61
2021/06/13 03:20:12;;;;;;;17.83;16.83;;;24.80;92.30;;;;;;3585740;40;20500;-61
2021/06/13 03:22:40;;;;;;;18.57;17.30;;;24.80;92.30;;;;;;3595274;40;20483;-61
2021/06/13 03:25:11;;;;;;;18.90;17.40;;;24.80;92.30;;;;;;3578523;40;20484;-61
2021/06/13 03:27:42;;;;;;;17.90;16.70;;;24.80;92.30;;;;;;3595504;40;20867;-61
2021/06/13 03:30:14;;;;;;;19.03;17.70;;;24.80;92.30;;;;;;3587322;40;20484;-61
2021/06/13 03:32:45;;;;;;;18.77;17.27;;;24.80;92.20;;;;;;3597274;40;20473;-60
2021/06/13 03:35:15;;;;;;;17.77;16.57;;;24.80;92.20;;;;;;3595608;40;20477;-61
2021/06/13 03:37:43;;;;;;;17.63;16.10;;;24.80;92.20;;;;;;3587319;40;20489;-61
2021/06/13 03:40:13;;;;;;;17.10;16.03;;;24.80;92.20;;;;;;3594933;40;20474;-61
2021/06/13 03:42:41;;;;;;;17.00;15.73;;;24.80;92.10;;;;;;3595178;40;20477;-61
2021/06/13 03:45:11;;;;;;;18.47;16.90;;;24.80;92.10;;;;;;3594767;40;21033;-61
2021/06/13 03:47:39;;;;;;;17.30;16.00;;;24.80;92.10;;;;;;3594770;40;20469;-61
2021/06/13 03:50:10;;;;;;;17.47;16.47;;;24.80;92.10;;;;;;3595815;40;20493;-61
2021/06/13 03:52:39;;;;;;;17.37;16.27;;;24.80;92.10;;;;;;3596190;40;20486;-61
2021/06/13 03:55:09;;;;;;;17.00;16.00;;;24.80;92.10;;;;;;3596746;40;20489;-61
2021/06/13 03:57:38;;;;;;;17.37;16.17;;;24.80;92.00;;;;;;3596746;40;20578;-61
2021/06/13 04:00:07;;;;;;;17.30;16.30;;;24.80;92.00;;;;;;3596504;40;20485;-61
2021/06/13 04:02:42;;;;;;;16.73;15.73;;;24.80;91.90;;;;;;3587684;40;21026;-61
2021/06/13 04:05:13;;;;;;;17.60;16.53;;;24.80;92.00;;;;;;3597076;40;20860;-61
2021/06/13 04:07:43;;;;;;;18.20;17.10;;;24.80;91.90;;;;;;3596532;40;21057;-61
2021/06/13 04:10:11;;;;;;;18.00;16.97;;;24.80;91.90;;;;;;3597347;40;20492;-61
2021/06/13 04:12:39;;;;;;;16.30;15.40;;;24.80;91.90;;;;;;3597557;40;20533;-61
2021/06/13 04:15:08;;;;;;;17.70;16.70;;;24.80;91.80;;;;;;3596734;40;20473;-61
2021/06/13 04:17:35;;;;;;;17.07;15.97;;;24.80;91.90;;;;;;3596920;39;20492;-61
2021/06/13 04:20:06;;;;;;;17.37;16.30;;;24.80;91.90;;;;;;3596732;40;20497;-61
2021/06/13 04:22:36;;;;;;;18.73;17.57;;;24.80;91.80;;;;;;3587319;40;20484;-61
2021/06/13 04:25:04;;;;;;;17.93;16.90;;;24.80;91.80;;;;;;3597069;40;20469;-61
2021/06/13 04:27:32;;;;;;;18.27;16.83;;;24.80;91.70;;;;;;3596422;40;20496;-61
2021/06/13 04:30:00;;;;;;;18.93;17.57;;;24.80;91.70;;;;;;3595715;40;20485;-61
2021/06/13 04:32:28;;;;;;;18.37;16.97;;;24.80;91.70;;;;;;3595601;40;20848;-61
2021/06/13 04:34:55;;;;;;;18.73;17.30;;;24.80;91.70;;;;;;3596185;40;20546;-61
2021/06/13 04:37:22;;;;;;;16.53;15.53;;;24.80;91.70;;;;;;3596404;40;20832;-61
2021/06/13 04:39:50;;;;;;;17.43;16.33;;;24.90;91.80;;;;;;3595604;40;20483;-61
2021/06/13 04:42:18;;;;;;;17.13;15.87;;;24.90;91.80;;;;;;3595228;40;20493;-61
2021/06/13 04:44:46;;;;;;;19.30;18.00;;;24.80;91.70;;;;;;3595312;40;21219;-61
2021/06/13 04:47:13;;;;;;;17.33;16.13;;;24.80;91.70;;;;;;3595769;40;20469;-61
2021/06/13 04:49:42;;;;;;;17.20;16.10;;;24.90;91.70;;;;;;3596078;40;20746;-61
2021/06/13 04:52:13;;;;;;;17.47;16.10;;;24.90;91.80;;;;;;3595437;40;20487;-60
2021/06/13 04:54:49;;;;;;;18.43;17.23;;;24.90;91.80;;;;;;3596013;40;20485;-61
2021/06/13 04:57:30;;;;;;;17.80;16.33;;;24.90;91.70;;;;;;3596419;40;21074;-61
2021/06/13 04:59:57;;;;;;;18.03;16.67;;;24.90;91.80;;;;;;3596592;40;20709;-60
2021/06/13 05:02:24;;;;;;;16.77;15.70;;;24.80;91.60;;;;;;3596442;40;20716;-61
2021/06/13 05:04:54;;;;;;;18.40;16.70;;;24.90;91.70;;;;;;3596231;40;20469;-61
2021/06/13 05:07:21;;;;;;;17.57;16.47;;;24.90;91.60;;;;;;3595776;40;20554;-61
2021/06/13 05:09:48;;;;;;;16.40;15.50;;;24.90;91.60;;;;;;3596595;40;20477;-61
2021/06/13 05:12:16;;;;;;;17.57;16.47;;;24.90;91.60;;;;;;3596778;40;20489;-60
2021/06/13 05:14:44;;;;;;;17.93;16.60;;;24.90;91.50;;;;;;3595653;40;20481;-61
2021/06/13 05:17:11;;;;;;;18.17;16.40;;;24.90;91.50;;;;;;3595920;40;20488;-61
2021/06/13 05:19:39;;;;;;;18.00;17.00;;;24.90;91.60;;;;;;3595624;40;20489;-60
2021/06/13 05:22:07;;;;;;;16.87;15.77;;;24.90;91.80;;;;;;3585898;40;20485;-61
2021/06/13 05:24:34;;;;;;;18.40;17.17;;;24.90;91.80;;;;;;3595674;40;20477;-60
2021/06/13 05:27:01;;;;;;;17.30;16.20;;;24.90;91.90;;;;;;3595971;40;20526;-61
2021/06/13 05:29:30;;;;;;;17.40;16.30;;;24.90;91.90;;;;;;3593043;40;20484;-61
2021/06/13 05:31:59;;;;;;;17.83;16.50;;;24.90;92.00;;;;;;3594816;40;20484;-61
2021/06/13 05:34:26;;;;;;;17.70;16.57;;;24.90;92.00;;;;;;3595971;40;20481;-61
2021/06/13 05:36:53;;;;;;;16.87;15.57;;;24.90;92.10;;;;;;3595356;40;20477;-60
2021/06/13 05:39:21;;;;;;;16.87;15.87;;;24.90;92.10;;;;;;3595238;40;20874;-61
2021/06/13 05:41:48;;;;;;;17.77;16.67;;;24.90;92.10;;;;;;3594901;40;20484;-61
2021/06/13 05:44:15;;;;;;;18.20;17.20;;;24.90;92.10;;;;;;3593427;40;20473;-61
2021/06/13 05:46:42;;;;;;;17.83;16.83;;;24.90;92.10;;;;;;3594628;40;20578;-61
2021/06/13 05:49:11;;;;;;;16.97;15.90;;;24.90;92.10;;;;;;3594366;40;20496;-61
2021/06/13 05:51:38;;;;;;;16.30;15.10;;;24.90;92.10;;;;;;3595086;40;20469;-61
2021/06/13 05:54:05;;;;;;;16.63;15.70;;;24.90;92.10;;;;;;3594984;40;20474;-61
2021/06/13 05:56:34;;;;;;;16.40;15.10;;;24.90;92.10;;;;;;3594300;40;20473;-61
2021/06/13 05:59:01;;;;;;;17.73;16.47;;;24.90;92.10;;;;;;3594727;40;20872;-61
2021/06/13 06:01:28;;;;;;;17.17;15.70;;;24.90;92.20;;;;;;3594150;40;20492;-61
2021/06/13 06:03:55;;;;;;;17.30;15.67;;;24.90;92.10;;;;;;3594704;40;20887;-61
2021/06/13 06:06:23;;;;;;;16.83;15.73;;;24.90;92.00;;;;;;3594926;40;20471;-61
2021/06/13 06:08:50;;;;;;;16.33;15.23;;;24.90;92.00;;;;;;3594318;40;20478;-61
2021/06/13 06:11:17;;;;;;;15.97;15.10;;;24.90;91.90;;;;;;3594186;40;20976;-60
2021/06/13 06:13:46;;;;;;;15.97;15.07;;;24.90;91.80;;;;;;3594103;40;20486;-61
2021/06/13 06:16:13;;;;;;;16.63;15.53;;;24.90;91.80;;;;;;3593914;40;20473;-61
2021/06/13 06:18:40;;;;;;;16.47;15.30;;;24.90;92.10;;;;;;3594505;40;20476;-61
2021/06/13 06:21:08;;;;;;;16.47;15.47;;;24.90;91.80;;;;;;3594017;40;20563;-61
2021/06/13 06:23:36;;;;;;;15.67;14.77;;;24.90;91.80;;;;;;3594578;40;20481;-61
2021/06/13 06:26:03;;;;;;;16.53;15.47;;;24.90;91.80;;;;;;3594291;40;20489;-61
2021/06/13 06:28:30;;;;;;;15.30;14.40;;;24.90;91.70;;;;;;3593428;40;20489;-61
2021/06/13 06:30:57;;;;;;;14.83;13.93;;;24.90;91.70;;;;;;3593915;40;20570;-61
2021/06/13 06:33:30;;;;;;;13.90;13.00;;;24.90;91.60;;;;;;3594444;40;20820;-61
2021/06/13 06:35:57;;;;;;;13.97;12.73;;;24.90;91.50;;;;;;3593540;40;20496;-60
2021/06/13 06:38:24;;;;;;;14.20;13.30;;;24.90;91.30;;;;;;3593262;40;20875;-61
2021/06/13 06:40:52;;;;;;;16.80;13.63;;;24.90;91.20;;;;;;3593958;39;20805;-61
2021/06/13 06:43:21;;;;;;;14.53;13.63;;;24.90;91.20;;;;;;3593635;40;20488;-61
2021/06/13 06:45:48;;;;;;;14.17;13.07;;;24.90;91.20;;;;;;3594877;40;20558;-61
2021/06/13 06:48:15;;;;;;;13.33;12.43;;;24.90;91.20;;;;;;3594093;40;20480;-61
2021/06/13 06:50:42;;;;;;;13.60;12.80;;;24.90;91.20;;;;;;3594071;40;20488;-61
2021/06/13 06:53:10;;;;;;;13.00;12.30;;;24.90;91.10;;;;;;3594316;40;20516;-60
2021/06/13 06:55:37;;;;;;;12.57;11.77;;;24.90;91.10;;;;;;3594678;40;20909;-61
2021/06/13 06:58:06;;;;;;;13.30;12.50;;;24.90;91.00;;;;;;3595247;40;20481;-60
2021/06/13 07:00:33;;;;;;;13.63;12.80;;;24.90;90.90;;;;;;3595449;40;20828;-61
2021/06/13 07:03:01;;;;;;;14.30;13.50;;;24.90;91.00;;;;;;3585812;40;20484;-61
2021/06/13 07:05:30;;;;;;;13.43;12.63;;;24.90;91.00;;;;;;3595373;40;20485;-61
2021/06/13 07:08:00;;;;;;;13.43;12.63;;;24.90;91.10;;;;;;3595962;40;20550;-60
2021/06/13 07:10:29;;;;;;;12.83;12.17;;;24.90;91.00;;;;;;3585859;40;20578;-61
2021/06/13 07:12:56;;;;;;;12.20;11.60;;;24.90;91.00;;;;;;3594158;40;21265;-61
2021/06/13 07:15:25;;;;;;;13.47;12.30;;;24.90;90.60;;;;;;3595086;40;20484;-59
2021/06/13 07:17:55;;;;;;;11.93;11.33;;;24.90;90.50;;;;;;3594767;40;20493;-61
2021/06/13 07:20:24;;;;;;;12.47;11.47;;;24.90;90.40;;;;;;3594352;40;20731;-61
2021/06/13 07:22:54;;;;;;;12.37;11.80;;;24.90;90.20;;;;;;3592577;39;20493;-61
2021/06/13 07:25:21;;;;;;;12.70;12.10;;;24.80;90.50;;;;;;3594682;40;20493;-61
2021/06/13 07:27:48;;;;;;;11.90;11.30;;;24.80;90.00;;;;;;3594002;40;20940;-61
2021/06/13 07:30:17;;;;;;;11.60;11.00;;;24.80;89.70;;;;;;3593895;40;20494;-61
2021/06/13 07:32:45;;;;;;;14.37;13.27;;;24.80;89.40;;;;;;3593593;40;20558;-61
2021/06/13 07:35:14;;;;;;;15.57;14.07;;;24.80;89.60;;;;;;3593524;40;20511;-61
2021/06/13 07:37:42;;;;;;;16.77;14.10;;;24.90;90.00;;;;;;3594736;40;20478;-65
2021/06/13 07:40:13;;;;;;;13.43;12.23;;;24.90;90.10;;;;;;3584607;40;20577;-65
2021/06/13 07:42:43;;;;;;;11.80;10.97;;;24.80;85.20;;;;;;3589226;40;20530;-66
2021/06/13 07:45:13;;;;;;;10.77;10.23;;;24.70;82.50;;;;;;3590944;40;20494;-65
2021/06/13 07:47:40;;;;;;;11.67;10.67;;;24.60;82.80;;;;;;3594454;40;21243;-66
2021/06/13 07:50:11;;;;;;;11.60;11.07;;;24.50;81.50;;;;;;3594974;40;20480;-66
2021/06/13 07:52:39;;;;;;;11.30;10.70;;;24.40;81.20;;;;;;3593564;39;20509;-65
2021/06/13 07:55:08;;;;;;;10.97;10.40;;;24.30;80.90;;;;;;3593014;40;20481;-66
2021/06/13 07:57:35;;;;;;;12.37;11.07;;;24.30;81.40;;;;;;3593271;40;20493;-65
2021/06/13 08:00:03;;;;;;;12.17;11.27;;;24.30;81.80;;;;;;3594199;40;20582;-65
2021/06/13 08:02:32;;;;;;;12.63;11.63;;;24.30;82.40;;;;;;3594593;40;20477;-65
2021/06/13 08:05:07;;;;;;;12.37;11.53;;;24.30;82.80;;;;;;3593431;40;20481;-65
2021/06/13 08:07:35;;;;;;;11.27;10.57;;;24.30;81.60;;;;;;3592891;40;20581;-65
2021/06/13 08:10:03;;;;;;;10.90;10.37;;;24.30;81.00;;;;;;3593486;40;20874;-65
2021/06/13 08:12:30;;;;;;;10.83;10.20;;;24.20;81.30;;;;;;3594312;40;20480;-65
2021/06/13 08:14:57;;;;;;;11.50;10.60;;;24.10;81.10;;;;;;3593210;40;20477;-65
2021/06/13 08:17:25;;;;;;;10.83;10.33;;;24.00;81.20;;;;;;3593886;40;20488;-65
2021/06/13 08:19:53;;;;;;;11.80;11.10;;;24.00;81.30;;;;;;3592284;40;20480;-65
2021/06/13 08:22:20;;;;;;;12.50;11.30;;;23.90;81.60;;;;;;3593722;40;20481;-66
2021/06/13 08:24:48;;;;;;;11.27;10.63;;;23.90;80.90;;;;;;3593481;40;20920;-65
2021/06/13 08:27:15;;;;;;;10.80;10.00;;;23.80;82.20;;;;;;3593527;40;20469;-65
2021/06/13 08:29:43;;;;;;;11.83;11.10;;;23.80;82.50;;;;;;3593548;40;20465;-66
2021/06/13 08:32:10;;;;;;;11.30;10.80;;;23.80;82.10;;;;;;3594394;40;20481;-65
2021/06/13 08:34:37;;;;;;;11.53;10.93;;;23.80;81.70;;;;;;3594285;40;20492;-65
2021/06/13 08:37:04;;;;;;;11.63;10.73;;;23.80;81.00;;;;;;3593484;40;20554;-65
2021/06/13 08:39:31;;;;;;;11.67;11.07;;;23.70;80.80;;;;;;3593302;40;20826;-65
2021/06/13 08:42:01;;;;;;;11.90;10.90;;;23.70;80.70;;;;;;3594239;40;20485;-65
2021/06/13 08:44:28;;;;;;;11.57;10.97;;;23.70;80.10;;;;;;3594310;40;20865;-65
2021/06/13 08:46:57;;;;;;;12.10;11.30;;;23.70;81.00;;;;;;3593386;40;20662;-65
2021/06/13 08:49:25;;;;;;;11.43;10.73;;;23.70;80.60;;;;;;3592968;40;20782;-62
2021/06/13 08:51:53;;;;;;;11.03;10.53;;;23.80;80.10;;;;;;3592700;40;20493;-62
2021/06/13 08:54:20;;;;;;;12.23;11.13;;;23.80;80.50;;;;;;3592732;40;20531;-62
2021/06/13 08:56:47;;;;;;;11.80;11.30;;;24.00;81.10;;;;;;3593040;40;20602;-61
2021/06/13 08:59:16;;;;;;;12.83;11.90;;;24.10;81.40;;;;;;3591600;40;20495;-61
2021/06/13 09:01:44;;;;;;;12.93;12.00;;;24.20;81.90;;;;;;3591899;40;20781;-60
2021/06/13 09:04:11;;;;;;;12.70;11.87;;;24.20;82.10;;;;;;3590736;39;20473;-62
2021/06/13 09:06:38;;;;;;;12.77;12.07;;;24.30;82.60;;;;;;3592703;40;20535;-61
2021/06/13 09:09:18;;;;;;;12.20;11.40;;;24.40;83.00;;;;;;3591318;40;20500;-62
2021/06/13 09:11:59;;;;;;;13.80;12.80;;;24.40;83.50;;;;;;3592308;40;20528;-62
2021/06/13 09:14:29;;;;;;;13.50;12.80;;;24.40;83.80;;;;;;3595379;39;21167;-61
2021/06/13 09:16:57;;;;;;;14.03;13.33;;;24.50;84.20;;;;;;3593181;40;20496;-62
2021/06/13 09:19:24;;;;;;;14.00;13.20;;;24.50;84.40;;;;;;3593325;40;20484;-62
2021/06/13 09:21:51;;;;;;;16.23;14.87;;;24.50;84.60;;;;;;3583534;40;20578;-61
2021/06/13 09:24:21;;;;;;;15.43;14.60;;;24.60;84.90;;;;;;3592339;40;20493;-62
2021/06/13 09:26:48;;;;;;;15.87;14.77;;;24.60;85.10;;;;;;3592985;40;20570;-61
2021/06/13 09:29:15;;;;;;;15.83;14.37;;;24.60;85.30;;;;;;3592862;40;20610;-62
2021/06/13 09:31:44;;;;;;;14.97;14.00;;;24.60;85.40;;;;;;3592207;40;20457;-61
2021/06/13 09:34:15;;;;;;;15.30;14.30;;;24.60;85.40;;;;;;3591456;40;20914;-61
2021/06/13 09:36:42;;;;;;;15.00;13.90;;;24.70;85.60;;;;;;3593413;40;20485;-60
2021/06/13 09:39:11;;;;;;;14.60;13.90;;;24.70;85.60;;;;;;3592591;40;20481;-62
2021/06/13 09:41:40;;;;;;;15.73;14.73;;;24.70;85.70;;;;;;3593408;40;20738;-61
2021/06/13 09:44:09;;;;;;;15.87;14.97;;;24.70;85.80;;;;;;3591305;40;20566;-62
2021/06/13 09:46:39;;;;;;;15.50;14.63;;;24.70;85.70;;;;;;3592077;40;20550;-60
2021/06/13 09:49:09;;;;;;;15.57;14.57;;;24.70;85.60;;;;;;3592480;40;20482;-62
2021/06/13 09:51:40;;;;;;;16.27;15.23;;;24.70;85.60;;;;;;3593079;40;20489;-62
2021/06/13 09:54:09;;;;;;;15.07;14.27;;;24.70;85.60;;;;;;3596812;39;20483;-61
2021/06/13 09:56:41;;;;;;;15.63;14.53;;;24.70;85.60;;;;;;3600364;39;20476;-61
2021/06/13 09:59:11;;;;;;;15.60;14.80;;;24.70;85.70;;;;;;3603634;39;20564;-62
2021/06/13 10:01:44;;;;;;;16.60;15.20;;;24.70;85.80;;;;;;3600287;39;20481;-61
2021/06/13 10:04:30;;;;;;;15.20;14.33;;;24.70;85.90;;;;;;3592219;40;20470;-61
2021/06/13 10:07:01;;;;;;;14.87;14.17;;;24.70;86.10;;;;;;3592722;39;20803;-61
2021/06/13 10:09:44;;;;;;;14.50;13.73;;;24.80;86.10;;;;;;3591531;39;20485;-61
2021/06/13 10:12:15;;;;;;;15.07;13.97;;;24.80;86.00;;;;;;3598887;39;20485;-61
2021/06/13 10:14:43;;;;;;;15.00;14.10;;;24.80;85.90;;;;;;3591882;39;20551;-62
2021/06/13 10:17:11;;;;;;;15.53;14.67;;;24.80;85.70;;;;;;3591520;39;20485;-62
2021/06/13 10:19:47;;;;;;;14.83;13.97;;;24.80;85.70;;;;;;3598194;39;20825;-61
2021/06/13 10:22:18;;;;;;;14.70;13.70;;;24.80;85.70;;;;;;3594255;39;20496;-62
2021/06/13 10:24:48;;;;;;;15.60;14.60;;;24.70;85.60;;;;;;3592154;40;20746;-61
2021/06/13 10:27:19;;;;;;;14.43;13.73;;;24.70;85.60;;;;;;3592067;39;20586;-62
2021/06/13 10:29:49;;;;;;;13.87;13.17;;;24.80;85.70;;;;;;3593427;39;20508;-62
2021/06/13 10:32:20;;;;;;;14.33;13.53;;;24.80;85.60;;;;;;3598066;39;20590;-61
2021/06/13 10:34:51;;;;;;;13.67;12.87;;;24.70;85.50;;;;;;3595465;39;20477;-62
2021/06/13 10:37:19;;;;;;;13.67;12.87;;;24.70;85.40;;;;;;3594990;39;20485;-62
2021/06/13 10:39:49;;;;;;;15.50;14.60;;;24.80;85.50;;;;;;3593567;39;20591;-62
2021/06/13 10:42:19;;;;;;;15.10;14.20;;;24.80;85.50;;;;;;3591335;40;20485;-62
2021/06/13 10:44:49;;;;;;;14.83;14.03;;;24.80;85.50;;;;;;3593751;39;20477;-61
2021/06/13 10:47:17;;;;;;;14.40;13.63;;;24.80;85.70;;;;;;3602975;39;20483;-62
2021/06/13 10:49:47;;;;;;;15.10;14.20;;;24.80;85.60;;;;;;3602914;39;20523;-62
2021/06/13 10:52:17;;;;;;;15.97;15.17;;;24.80;85.50;;;;;;3603849;39;20509;-62
2021/06/13 10:54:56;;;;;;;13.87;13.17;;;24.80;85.60;;;;;;3603287;39;20480;-61
2021/06/13 10:57:37;;;;;;;14.30;13.60;;;24.80;85.70;;;;;;3603104;39;20509;-62
2021/06/13 11:00:31;;;;;;;13.77;13.00;;;24.80;85.70;;;;;;3601592;39;20476;-62
2021/06/13 11:03:00;;;;;;;14.00;13.30;;;24.80;85.70;;;;;;3603221;39;20464;-62
2021/06/13 11:05:46;;;;;;;13.33;12.53;;;24.80;85.70;;;;;;3602426;39;20621;-61
2021/06/13 11:08:16;;;;;;;14.23;13.23;;;24.80;85.80;;;;;;3602330;39;20761;-61
2021/06/13 11:10:44;;;;;;;14.03;13.33;;;24.80;85.70;;;;;;3601532;39;20504;-62
2021/06/13 11:13:14;;;;;;;14.00;13.30;;;24.80;85.80;;;;;;3601535;39;21143;-62
2021/06/13 11:16:04;;;;;;;14.50;13.70;;;24.80;85.80;;;;;;3601686;39;20714;-62
2021/06/13 11:18:34;;;;;;;14.67;13.73;;;24.80;85.70;;;;;;3601633;39;20568;-62
2021/06/13 11:21:17;;;;;;;13.57;12.93;;;24.80;85.70;;;;;;3592335;39;20494;-62
2021/06/13 11:24:04;;;;;;;14.20;13.50;;;24.80;85.60;;;;;;3603560;39;20921;-61
2021/06/13 11:26:39;;;;;;;12.90;12.23;;;24.80;85.60;;;;;;3601091;39;20596;-62
2021/06/13 11:29:09;;;;;;;13.97;13.27;;;24.80;85.50;;;;;;3594642;39;20476;-61
2021/06/13 11:31:49;;;;;;;14.87;14.07;;;24.80;85.60;;;;;;3590522;40;20485;-62
2021/06/13 11:34:16;;;;;;;14.10;13.30;;;24.80;85.70;;;;;;3589836;40;20521;-62
2021/06/13 11:36:43;;;;;;;14.40;13.60;;;24.80;85.80;;;;;;3590386;40;20540;-61
2021/06/13 11:39:28;;;;;;;13.67;12.97;;;24.80;85.80;;;;;;3590735;40;20489;-61
2021/06/13 11:42:16;;;;;;;14.80;14.00;;;24.80;85.90;;;;;;3591954;40;20493;-61
2021/06/13 11:44:51;;;;;;;14.00;13.20;;;24.80;85.80;;;;;;3591190;40;20489;-61
2021/06/13 11:47:32;;;;;;;13.53;12.93;;;24.80;86.00;;;;;;3591087;40;21144;-61
2021/06/13 11:50:00;;;;;;;13.83;13.03;;;24.80;85.90;;;;;;3583919;40;20461;-62
2021/06/13 11:53:00;;;;;;;13.80;13.00;;;24.80;86.00;;;;;;3584649;40;20520;-62
2021/06/13 11:56:07;;;;;;;13.33;12.63;;;24.80;86.00;;;;;;3592998;40;20910;-61
2021/06/13 11:58:35;;;;;;;13.70;13.10;;;24.80;86.10;;;;;;3576350;40;20485;-62
2021/06/13 12:01:04;;;;;;;13.10;12.50;;;24.80;86.10;;;;;;3591253;40;20485;-62
2021/06/13 12:03:32;;;;;;;13.67;12.97;;;24.80;86.10;;;;;;3591497;40;20551;-62
2021/06/13 12:06:06;;;;;;;14.73;13.93;;;24.80;86.20;;;;;;3589592;40;20895;-62
2021/06/13 12:08:41;;;;;;;13.43;12.63;;;24.80;86.20;;;;;;3592517;40;20516;-62
2021/06/13 12:11:25;;;;;;;14.00;13.30;;;24.80;86.30;;;;;;3583333;40;20487;-62
2021/06/13 12:13:52;;;;;;;13.90;13.00;;;24.80;86.30;;;;;;3591808;40;20512;-60
2021/06/13 12:16:19;;;;;;;14.23;13.53;;;24.80;86.20;;;;;;3590102;40;20497;-61
2021/06/13 12:19:04;;;;;;;13.90;13.30;;;24.80;86.10;;;;;;3591939;40;20568;-62
2021/06/13 12:21:32;;;;;;;15.37;14.37;;;24.80;86.10;;;;;;3590546;40;20563;-61
2021/06/13 12:24:14;;;;;;;14.20;13.50;;;24.80;86.10;;;;;;3591420;40;20604;-61
2021/06/13 12:29:37;;;;;;;14.20;13.37;;;24.80;86.30;;;;;;3584713;40;20473;-61
2021/06/13 12:32:13;;;;;;;13.77;13.07;;;24.80;86.40;;;;;;3590867;40;20717;-61
2021/06/13 12:34:40;;;;;;;13.90;13.20;;;24.80;86.40;;;;;;3590650;40;20570;-61
2021/06/13 12:37:15;;;;;;;13.93;13.13;;;24.80;86.30;;;;;;3592042;40;20488;-62
2021/06/13 12:39:42;;;;;;;15.10;14.27;;;24.80;86.20;;;;;;3592493;40;20489;-61
2021/06/13 12:42:12;;;;;;;14.60;13.80;;;24.80;86.20;;;;;;3590300;40;20594;-62
2021/06/13 12:44:41;;;;;;;14.70;14.00;;;24.80;86.30;;;;;;3591578;40;20492;-62
2021/06/13 12:47:10;;;;;;;15.37;14.57;;;24.80;86.30;;;;;;3591533;40;20477;-62